Time;durP1;ratioP1;P1;durP2;ratioP2;P2;SDS_P1;SDS_P2;PMS_P1;PMS_P2;Temp;Humidity;BMP_temperature;BMP_pressure;BME280_temperature;BME280_humidity;BME280_pressure;Samples;Min_cycle;Max_cycle;Signal;HPM_P1;HPM_P2
2022/10/09 00:01:24;;;;;;;5.28;3.28;;;;;;;11.51;100.00;100900.97;5072980;28;20111;-66
2022/10/09 00:03:52;;;;;;;6.28;3.47;;;;;;;11.48;100.00;100901.03;5082109;28;20036;-65
2022/10/09 00:06:23;;;;;;;6.22;3.63;;;;;;;11.43;100.00;100893.13;5074793;28;20479;-66
2022/10/09 00:08:48;;;;;;;9.13;3.78;;;;;;;11.40;100.00;100892.34;5073477;28;20028;-65
2022/10/09 00:11:17;;;;;;;7.40;3.50;;;;;;;11.32;100.00;100894.25;5072638;28;20040;-65
2022/10/09 00:13:43;;;;;;;5.85;3.63;;;;;;;11.29;100.00;100883.69;5072051;28;20094;-65
2022/10/09 00:16:10;;;;;;;6.53;3.50;;;;;;;11.24;100.00;100885.56;5072285;28;20021;-65
2022/10/09 00:18:36;;;;;;;8.25;3.50;;;;;;;11.22;100.00;100882.06;5072153;28;20028;-65
2022/10/09 00:21:03;;;;;;;8.07;3.40;;;;;;;11.13;100.00;100876.94;5072850;28;20464;-66
2022/10/09 00:23:29;;;;;;;4.70;3.13;;;;;;;11.11;100.00;100882.28;5072803;28;20028;-65
2022/10/09 00:25:57;;;;;;;6.25;3.28;;;;;;;11.08;100.00;100885.03;5072784;28;20028;-65
2022/10/09 00:28:24;;;;;;;5.82;3.42;;;;;;;11.05;100.00;100873.56;5073204;28;20486;-66
2022/10/09 00:30:50;;;;;;;11.55;3.67;;;;;;;11.00;100.00;100873.66;5072717;28;20048;-65
2022/10/09 00:33:15;;;;;;;4.57;3.05;;;;;;;10.97;100.00;100870.19;5072796;28;20123;-65
2022/10/09 00:35:41;;;;;;;7.18;3.83;;;;;;;10.97;100.00;100867.53;5072671;28;20133;-65
2022/10/09 00:38:07;;;;;;;7.90;4.10;;;;;;;10.93;100.00;100858.72;5072584;28;20024;-65
2022/10/09 00:40:33;;;;;;;6.25;4.07;;;;;;;10.93;100.00;100858.72;5072605;28;20035;-66
2022/10/09 00:42:59;;;;;;;8.50;3.97;;;;;;;10.92;100.00;100866.72;5072704;28;20040;-66
2022/10/09 00:45:25;;;;;;;7.80;4.20;;;;;;;10.87;100.00;100853.53;5071806;28;20028;-65
2022/10/09 00:48:03;;;;;;;5.70;3.60;;;;;;;10.90;100.00;100857.91;5072505;28;20028;-65
2022/10/09 00:50:46;;;;;;;8.15;4.18;;;;;;;10.92;100.00;100856.97;5072089;28;20024;-64
2022/10/09 00:53:14;;;;;;;6.25;3.75;;;;;;;10.91;100.00;100860.53;5071647;28;20054;-65
2022/10/09 00:55:42;;;;;;;9.07;4.22;;;;;;;10.91;100.00;100849.88;5071039;28;20032;-65
2022/10/09 00:58:08;;;;;;;7.00;3.90;;;;;;;10.92;100.00;100851.66;5071267;28;20104;-64
2022/10/09 01:00:33;;;;;;;8.80;4.30;;;;;;;10.92;100.00;100853.44;5072093;28;20064;-65
2022/10/09 01:02:59;;;;;;;7.80;4.15;;;;;;;10.91;100.00;100859.63;5071578;28;20562;-64
2022/10/09 01:05:51;;;;;;;9.13;4.65;;;;;;;11.00;100.00;100859.47;5071706;28;20523;-64
2022/10/09 01:08:26;;;;;;;9.27;5.47;;;;;;;10.99;100.00;100849.75;5071924;28;20031;-64
2022/10/09 01:11:07;;;;;;;11.68;5.63;;;;;;;11.00;100.00;100855.03;5071435;28;20487;-65
2022/10/09 01:13:41;;;;;;;9.18;4.95;;;;;;;10.97;100.00;100859.53;5071811;28;20102;-65
2022/10/09 01:16:18;;;;;;;8.20;4.85;;;;;;;10.89;100.00;100834.88;5071645;28;20069;-65
2022/10/09 01:18:54;;;;;;;9.48;4.57;;;;;;;10.98;100.00;100845.31;5071772;28;20016;-65
2022/10/09 01:21:43;;;;;;;6.90;4.50;;;;;;;10.92;100.00;100843.66;5074123;28;20041;-65
2022/10/09 01:24:21;;;;;;;9.13;4.53;;;;;;;10.90;100.00;100841.94;5063390;28;20036;-65
2022/10/09 01:27:08;;;;;;;9.77;5.90;;;;;;;10.85;100.00;100833.16;5071592;28;20103;-66
2022/10/09 01:29:42;;;;;;;7.45;4.68;;;;;;;10.82;100.00;100835.91;5070269;28;20051;-65
2022/10/09 01:32:11;;;;;;;7.32;4.80;;;;;;;10.80;100.00;100832.38;5053362;28;20119;-65
2022/10/09 01:34:38;;;;;;;8.68;4.70;;;;;;;10.76;100.00;100828.03;5074299;28;20509;-65
2022/10/09 01:37:04;;;;;;;9.27;4.05;;;;;;;10.73;100.00;100823.66;5071220;28;20028;-65
2022/10/09 01:39:32;;;;;;;7.88;3.88;;;;;;;10.71;100.00;100817.47;5071594;28;20028;-65
2022/10/09 01:41:58;;;;;;;8.32;4.80;;;;;;;10.75;100.00;100820.94;5071219;28;20021;-65
2022/10/09 01:44:29;;;;;;;11.43;5.45;;;;;;;10.83;100.00;100814.56;5071424;28;20085;-65
2022/10/09 01:46:55;;;;;;;9.68;4.93;;;;;;;10.83;100.00;100817.22;5071043;28;20162;-65
2022/10/09 01:49:34;;;;;;;9.50;4.63;;;;;;;10.81;100.00;100813.72;5070986;28;20024;-65
2022/10/09 01:52:06;;;;;;;9.18;4.80;;;;;;;10.83;100.00;100809.25;5071247;28;20017;-65
2022/10/09 01:54:42;;;;;;;9.20;4.55;;;;;;;10.76;100.00;100788.97;5070887;28;20455;-65
2022/10/09 01:57:11;;;;;;;8.90;5.15;;;;;;;10.79;100.00;100804.03;5070209;28;20115;-65
2022/10/09 01:59:40;;;;;;;8.57;5.15;;;;;;;10.73;100.00;100798.81;5071251;28;20036;-65
2022/10/09 02:02:07;;;;;;;9.23;4.75;;;;;;;10.70;100.00;100799.78;5071091;28;20024;-65
2022/10/09 02:04:35;;;;;;;7.28;4.55;;;;;;;10.67;100.00;100791.84;5080962;28;20044;-65
2022/10/09 02:07:01;;;;;;;7.28;4.28;;;;;;;10.64;100.00;100797.25;5073428;28;20031;-65
2022/10/09 02:09:28;;;;;;;9.20;4.88;;;;;;;10.62;100.00;100789.25;5071123;28;20035;-65
2022/10/09 02:11:56;;;;;;;7.78;4.30;;;;;;;10.63;100.00;100780.41;5070439;28;20027;-65
2022/10/09 02:14:22;;;;;;;9.35;4.47;;;;;;;10.62;100.00;100785.75;5070906;28;20443;-65
2022/10/09 02:16:59;;;;;;;7.35;4.50;;;;;;;10.67;100.00;100783.00;5070637;28;20056;-65
2022/10/09 02:19:33;;;;;;;9.50;4.47;;;;;;;10.68;100.00;100774.09;5070602;28;20036;-65
2022/10/09 02:22:06;;;;;;;10.07;4.85;;;;;;;10.77;100.00;100776.56;5070770;28;20089;-66
2022/10/09 02:24:32;;;;;;;9.60;5.05;;;;;;;10.82;100.00;100780.91;5070645;28;20024;-67
2022/10/09 02:26:59;;;;;;;12.40;5.30;;;;;;;10.87;100.00;100778.13;5069798;28;20032;-66
2022/10/09 02:29:24;;;;;;;9.50;5.13;;;;;;;10.91;100.00;100769.16;5070106;28;20040;-66
2022/10/09 02:31:50;;;;;;;12.30;5.10;;;;;;;10.91;100.00;100759.38;5069974;28;20028;-66
2022/10/09 02:34:18;;;;;;;12.38;5.30;;;;;;;10.92;100.00;100757.59;5070140;28;20028;-66
2022/10/09 02:36:45;;;;;;;10.60;5.38;;;;;;;10.94;100.00;100756.66;5069962;28;20034;-66
2022/10/09 02:39:10;;;;;;;13.65;5.97;;;;;;;10.96;100.00;100764.59;5070718;28;20157;-66
2022/10/09 02:41:36;;;;;;;10.10;5.10;;;;;;;10.91;100.00;100763.81;5052438;28;20102;-66
2022/10/09 02:44:03;;;;;;;9.85;5.35;;;;;;;10.95;100.00;100760.19;5070835;28;20432;-66
2022/10/09 02:46:29;;;;;;;10.32;5.40;;;;;;;10.93;100.00;100756.69;5070499;28;20044;-66
2022/10/09 02:48:54;;;;;;;10.27;5.60;;;;;;;10.89;100.00;100755.03;5052353;28;20067;-66
2022/10/09 02:51:20;;;;;;;12.70;4.97;;;;;;;10.83;100.00;100749.81;5070527;28;20031;-66
2022/10/09 02:53:46;;;;;;;10.10;5.32;;;;;;;10.81;100.00;100752.50;5070587;28;20032;-66
2022/10/09 02:56:11;;;;;;;10.57;5.47;;;;;;;10.82;100.00;100759.59;5052417;28;20028;-66
2022/10/09 02:58:37;;;;;;;9.68;5.38;;;;;;;10.79;100.00;100758.78;5070509;28;20028;-66
2022/10/09 03:01:03;;;;;;;10.55;5.13;;;;;;;10.74;100.00;100750.03;5070500;28;20406;-67
2022/10/09 03:03:30;;;;;;;12.02;5.90;;;;;;;10.68;100.00;100739.50;5077222;28;20024;-66
2022/10/09 03:06:08;;;;;;;11.13;6.10;;;;;;;10.78;100.00;100751.69;5090676;28;20026;-65
2022/10/09 03:08:35;;;;;;;10.52;5.53;;;;;;;10.80;100.00;100755.22;5091226;28;20060;-66
2022/10/09 03:11:00;;;;;;;10.15;5.95;;;;;;;10.77;100.00;100755.28;5094494;28;20100;-65
2022/10/09 03:13:26;;;;;;;13.50;6.30;;;;;;;10.79;100.00;100743.69;5089989;28;20658;-66
2022/10/09 03:15:51;;;;;;;11.52;6.10;;;;;;;10.78;100.00;100752.59;5074351;28;20024;-65
2022/10/09 03:18:17;;;;;;;15.27;5.93;;;;;;;10.75;100.00;100752.66;5074234;28;20063;-65
2022/10/09 03:20:43;;;;;;;15.55;6.93;;;;;;;10.73;100.00;100748.25;5074190;28;20036;-65
2022/10/09 03:23:08;;;;;;;11.02;5.18;;;;;;;10.63;100.00;100753.78;5073737;28;20036;-65
2022/10/09 03:25:34;;;;;;;12.35;6.00;;;;;;;10.65;100.00;100751.09;5073896;28;20465;-65
2022/10/09 03:27:59;;;;;;;12.15;6.00;;;;;;;10.64;100.00;100744.03;5073827;28;20039;-65
2022/10/09 03:30:25;;;;;;;10.65;5.47;;;;;;;10.57;100.00;100737.09;5073377;28;20099;-65
2022/10/09 03:32:50;;;;;;;13.27;6.15;;;;;;;10.66;100.00;100751.97;5076716;28;20029;-65
2022/10/09 03:35:16;;;;;;;11.32;6.43;;;;;;;10.68;100.00;100748.38;5073096;28;20409;-66
2022/10/09 03:37:41;;;;;;;13.52;6.15;;;;;;;10.67;100.00;100756.38;5072684;28;20056;-66
2022/10/09 03:40:07;;;;;;;11.52;5.78;;;;;;;10.68;100.00;100753.69;5072362;28;20530;-65
2022/10/09 03:42:33;;;;;;;8.80;5.35;;;;;;;10.64;100.00;100752.88;5072268;28;20047;-65
2022/10/09 03:45:02;;;;;;;22.40;6.80;;;;;;;10.62;100.00;100752.03;5073631;28;20071;-66
2022/10/09 03:47:28;;;;;;;10.45;5.50;;;;;;;10.59;100.00;100749.44;5073114;28;20099;-65
2022/10/09 03:49:53;;;;;;;15.52;6.00;;;;;;;10.66;100.00;100762.63;5073540;28;20115;-65
2022/10/09 03:52:19;;;;;;;11.30;5.75;;;;;;;10.63;100.00;100759.13;5073157;28;20024;-65
2022/10/09 03:54:44;;;;;;;9.55;5.60;;;;;;;10.64;100.00;100744.88;5073233;28;20028;-66
2022/10/09 03:57:09;;;;;;;10.13;6.05;;;;;;;10.63;100.00;100748.47;5073548;28;20028;-65
2022/10/09 03:59:35;;;;;;;9.75;6.18;;;;;;;10.66;100.00;100751.97;5073424;28;20016;-65
2022/10/09 04:02:00;;;;;;;11.20;5.90;;;;;;;10.59;100.00;100754.75;5073358;28;20035;-64
2022/10/09 04:04:26;;;;;;;12.85;6.20;;;;;;;10.59;100.00;100745.91;5087613;28;20040;-65
2022/10/09 04:06:51;;;;;;;12.77;5.82;;;;;;;10.58;100.00;100755.66;5086891;28;20384;-65
2022/10/09 04:09:16;;;;;;;15.05;6.38;;;;;;;10.58;100.00;100753.00;5072983;28;20031;-65
2022/10/09 04:11:42;;;;;;;10.15;6.53;;;;;;;10.59;100.00;100753.91;5072952;28;20066;-65
2022/10/09 04:14:08;;;;;;;11.70;5.97;;;;;;;10.55;100.00;100746.88;5072507;28;20020;-65
2022/10/09 04:16:33;;;;;;;10.60;5.80;;;;;;;10.59;100.00;100754.75;5073161;28;20078;-65
2022/10/09 04:18:58;;;;;;;13.73;6.60;;;;;;;10.55;100.00;100758.41;5072981;28;20016;-66
2022/10/09 04:21:24;;;;;;;10.68;6.45;;;;;;;10.44;100.00;100741.75;5072555;28;20112;-65
2022/10/09 04:23:50;;;;;;;15.15;6.07;;;;;;;10.40;100.00;100740.09;5072366;28;20024;-65
2022/10/09 04:26:15;;;;;;;12.77;6.32;;;;;;;10.43;100.00;100745.34;5072805;28;20529;-65
2022/10/09 04:28:41;;;;;;;11.68;5.93;;;;;;;10.49;100.00;100750.53;5072708;28;20111;-65
2022/10/09 04:31:06;;;;;;;12.15;6.00;;;;;;;10.49;100.00;100755.84;5072492;28;20020;-64
2022/10/09 04:33:32;;;;;;;9.45;5.38;;;;;;;10.46;100.00;100750.59;5072576;28;20025;-65
2022/10/09 04:35:58;;;;;;;8.93;5.65;;;;;;;10.48;100.00;100750.56;5073099;28;20021;-64
2022/10/09 04:38:23;;;;;;;13.35;5.95;;;;;;;10.45;100.00;100756.84;5072684;28;20491;-65
2022/10/09 04:40:56;;;;;;;10.57;5.63;;;;;;;10.50;100.00;100741.66;5072593;28;20107;-65
2022/10/09 04:43:22;;;;;;;12.05;5.88;;;;;;;10.51;100.00;100746.06;5072288;28;20074;-65
2022/10/09 04:45:47;;;;;;;7.55;4.90;;;;;;;10.49;100.00;100750.53;5071475;28;20029;-65
2022/10/09 04:48:12;;;;;;;10.95;5.30;;;;;;;10.40;100.00;100734.78;5071214;28;20025;-65
2022/10/09 04:50:38;;;;;;;13.48;6.63;;;;;;;10.50;100.00;100746.97;5071323;28;20355;-64
2022/10/09 04:53:03;;;;;;;14.18;5.95;;;;;;;10.47;100.00;100746.16;5071336;28;20040;-66
2022/10/09 04:55:29;;;;;;;12.13;5.72;;;;;;;10.44;100.00;100743.56;5071743;28;20047;-65
2022/10/09 04:57:54;;;;;;;13.25;5.93;;;;;;;10.40;100.00;100740.09;5071412;28;20532;-65
2022/10/09 05:00:20;;;;;;;10.00;6.38;;;;;;;10.42;100.00;100735.63;5071724;28;20020;-65
2022/10/09 05:02:45;;;;;;;10.73;5.53;;;;;;;10.37;100.00;100742.81;5072587;28;20024;-65
2022/10/09 05:05:10;;;;;;;10.85;5.90;;;;;;;10.36;100.00;100734.88;5092145;28;20130;-65
2022/10/09 05:07:37;;;;;;;15.07;6.22;;;;;;;10.35;100.00;100747.28;5091785;28;20057;-65
2022/10/09 05:10:03;;;;;;;13.55;6.70;;;;;;;10.33;100.00;100743.78;5092273;28;20536;-65
2022/10/09 05:12:28;;;;;;;9.27;5.60;;;;;;;10.27;100.00;100730.63;5092281;28;20024;-66
2022/10/09 05:14:54;;;;;;;10.35;5.32;;;;;;;10.33;100.00;100742.88;5092137;28;20028;-65
2022/10/09 05:17:19;;;;;;;14.70;5.57;;;;;;;10.33;100.00;100742.88;5089209;28;20112;-65
2022/10/09 05:19:45;;;;;;;23.73;6.78;;;;;;;10.32;100.00;100743.81;5071603;28;20029;-65
2022/10/09 05:22:10;;;;;;;10.98;6.32;;;;;;;10.30;100.00;100737.63;5071505;28;20039;-65
2022/10/09 05:24:36;;;;;;;12.07;5.30;;;;;;;10.31;100.00;100742.06;5071353;28;20063;-65
2022/10/09 05:27:01;;;;;;;12.70;6.28;;;;;;;10.32;100.00;100736.72;5071732;28;20028;-65
2022/10/09 05:29:26;;;;;;;9.35;5.68;;;;;;;10.34;100.00;100734.03;5053600;28;20066;-65
2022/10/09 05:31:52;;;;;;;11.95;6.40;;;;;;;10.33;100.00;100732.25;5053638;28;20028;-65
2022/10/09 05:34:17;;;;;;;11.75;5.80;;;;;;;10.30;100.00;100738.53;5071406;28;20039;-65
2022/10/09 05:36:43;;;;;;;17.80;6.55;;;;;;;10.26;100.00;100723.53;5070588;28;20020;-65
2022/10/09 05:39:08;;;;;;;12.50;6.05;;;;;;;10.29;100.00;100730.56;5073961;28;20459;-65
2022/10/09 05:41:33;;;;;;;10.60;5.65;;;;;;;10.27;100.00;100727.06;5071468;28;20475;-65
2022/10/09 05:44:01;;;;;;;13.40;6.10;;;;;;;10.17;100.00;100712.19;5071125;28;20024;-65
2022/10/09 05:46:27;;;;;;;9.43;6.25;;;;;;;10.22;100.00;100735.16;5051456;28;20033;-65
2022/10/09 05:48:59;;;;;;;12.45;6.13;;;;;;;10.18;100.00;100729.94;5049710;28;20059;-65
2022/10/09 05:51:27;;;;;;;8.20;5.13;;;;;;;10.14;100.00;100737.09;5067924;28;20093;-65
2022/10/09 05:53:53;;;;;;;12.73;6.25;;;;;;;10.14;100.00;100738.84;5070317;28;20383;-65
2022/10/09 05:56:23;;;;;;;11.88;6.75;;;;;;;10.16;100.00;100734.38;5070932;28;20039;-65
2022/10/09 05:58:53;;;;;;;12.10;6.18;;;;;;;10.17;100.00;100739.69;5072880;28;20052;-66
2022/10/09 06:01:20;;;;;;;12.27;6.30;;;;;;;10.20;100.00;100725.44;5055225;28;20028;-65
2022/10/09 06:03:53;;;;;;;15.80;6.68;;;;;;;10.27;100.00;100733.28;5070453;28;20044;-65
2022/10/09 06:06:21;;;;;;;11.98;6.05;;;;;;;10.36;100.00;100738.38;5050308;28;20063;-65
2022/10/09 06:08:46;;;;;;;10.85;6.57;;;;;;;10.43;100.00;100729.38;5054065;28;20063;-65
2022/10/09 06:11:15;;;;;;;8.55;6.30;;;;;;;10.48;100.00;100738.16;5050720;28;20028;-65
2022/10/09 06:13:42;;;;;;;13.82;5.72;;;;;;;10.54;100.00;100732.69;5051176;28;20481;-65
2022/10/09 06:16:10;;;;;;;9.85;5.47;;;;;;;10.60;100.00;100732.59;5051638;28;20146;-64
2022/10/09 06:18:36;;;;;;;8.02;4.90;;;;;;;10.68;100.00;100728.84;5050001;28;20063;-65
2022/10/09 06:21:02;;;;;;;11.63;5.95;;;;;;;10.75;100.00;100733.16;5056246;28;20032;-64
2022/10/09 06:23:28;;;;;;;10.68;6.00;;;;;;;10.79;100.00;100726.84;5060449;28;20556;-65
2022/10/09 06:25:56;;;;;;;9.32;6.18;;;;;;;10.80;100.00;100726.81;5052912;28;20043;-65
2022/10/09 06:28:22;;;;;;;13.85;5.75;;;;;;;10.95;100.00;100729.16;5053083;28;20492;-65
2022/10/09 06:30:48;;;;;;;10.15;6.03;;;;;;;11.09;100.00;100732.34;5055799;28;20021;-65
2022/10/09 06:33:14;;;;;;;9.02;5.70;;;;;;;11.17;100.00;100732.19;5057886;28;20024;-65
2022/10/09 06:35:39;;;;;;;8.90;5.20;;;;;;;11.28;100.00;100730.13;5055834;28;20060;-65
2022/10/09 06:38:05;;;;;;;14.88;6.20;;;;;;;11.36;100.00;100736.16;5053329;28;20040;-65
2022/10/09 06:40:36;;;;;;;12.88;5.82;;;;;;;11.46;100.00;100737.69;5054806;28;20568;-65
2022/10/09 06:43:03;;;;;;;9.07;6.00;;;;;;;11.57;100.00;100736.50;5055250;28;20025;-65
2022/10/09 06:45:29;;;;;;;9.52;5.82;;;;;;;11.65;100.00;100725.66;5055408;28;20445;-65
2022/10/09 06:47:54;;;;;;;12.80;6.10;;;;;;;12.82;100.00;100730.34;5058417;28;20032;-65
2022/10/09 06:50:19;;;;;;;18.48;8.70;;;;;;;15.34;100.00;100734.69;5060857;28;20025;-66
2022/10/09 06:52:45;;;;;;;18.38;10.50;;;;;;;17.81;96.46;100717.94;5055864;28;20043;-65
2022/10/09 06:55:10;;;;;;;12.13;7.13;;;;;;;20.09;79.30;100716.78;5057344;28;20074;-66
2022/10/09 06:57:36;;;;;;;10.02;5.50;;;;;;;21.57;64.98;100733.41;5058320;28;20383;-66
2022/10/09 07:00:01;;;;;;;12.63;5.47;;;;;;;22.77;55.67;100735.00;5053767;28;20036;-65
2022/10/09 07:02:27;;;;;;;7.82;3.60;;;;;;;23.64;50.38;100735.81;5058952;28;20116;-65
2022/10/09 07:04:52;;;;;;;7.10;3.83;;;;;;;24.11;47.22;100737.69;5054653;28;20049;-65
2022/10/09 07:07:18;;;;;;;6.32;3.35;;;;;;;24.51;46.35;100744.50;5055698;28;20028;-65
2022/10/09 07:09:43;;;;;;;6.07;3.20;;;;;;;25.17;44.36;100743.72;5057218;28;20025;-66
2022/10/09 07:12:08;;;;;;;6.97;3.28;;;;;;;25.48;43.18;100735.66;5056268;28;20154;-65
2022/10/09 07:14:34;;;;;;;7.80;3.22;;;;;;;25.49;42.97;100726.47;5030522;28;20029;-65
2022/10/09 07:16:59;;;;;;;6.00;3.25;;;;;;;25.74;41.95;100738.94;5056016;28;20108;-65
2022/10/09 07:19:25;;;;;;;6.80;3.92;;;;;;;25.89;40.99;100740.38;5053899;28;20031;-65
2022/10/09 07:21:51;;;;;;;9.15;3.10;;;;;;;26.17;41.41;100733.47;5057206;28;20124;-65
2022/10/09 07:24:19;;;;;;;8.00;3.22;;;;;;;26.24;40.80;100731.94;5057393;28;20083;-65
2022/10/09 07:26:46;;;;;;;6.50;3.53;;;;;;;26.80;40.30;100742.41;5057632;28;20043;-65
2022/10/09 07:29:14;;;;;;;4.75;2.72;;;;;;;27.18;40.00;100744.47;5059060;28;20025;-65
2022/10/09 07:31:39;;;;;;;6.43;2.83;;;;;;;27.49;39.04;100738.00;5057746;28;20067;-64
2022/10/09 07:34:05;;;;;;;4.70;2.75;;;;;;;27.42;39.33;100735.94;5056573;28;20139;-65
2022/10/09 07:36:31;;;;;;;4.75;2.88;;;;;;;27.46;38.07;100738.28;5058853;28;20029;-64
2022/10/09 07:38:58;;;;;;;7.93;3.33;;;;;;;27.23;38.74;100734.00;5056418;28;20017;-64
2022/10/09 07:41:26;;;;;;;6.07;2.75;;;;;;;27.40;38.73;100718.84;5047243;28;20063;-64
2022/10/09 07:43:52;;;;;;;6.85;2.67;;;;;;;27.71;38.98;100715.84;5055013;28;20107;-65
2022/10/09 07:46:19;;;;;;;4.80;2.63;;;;;;;27.82;38.25;100729.44;5060943;28;20150;-65
2022/10/09 07:48:46;;;;;;;5.10;2.40;;;;;;;27.74;38.60;100729.25;5055801;28;20032;-65
2022/10/09 07:51:17;;;;;;;5.40;2.47;;;;;;;27.17;39.00;100727.22;5056677;28;21053;-65
2022/10/09 07:53:43;;;;;;;5.03;2.55;;;;;;;27.27;39.77;100726.34;5053014;28;20384;-65
2022/10/09 07:56:13;;;;;;;4.72;2.72;;;;;;;27.56;38.85;100722.72;5056220;28;20825;-65
2022/10/09 07:58:38;;;;;;;4.85;2.70;;;;;;;27.76;38.60;100727.25;5058267;28;20028;-65
2022/10/09 08:01:05;;;;;;;5.95;2.53;;;;;;;27.68;37.76;100726.22;5055698;28;20032;-65
2022/10/09 08:03:31;;;;;;;6.28;3.22;;;;;;;27.02;39.42;100725.84;5056578;28;20029;-65
2022/10/09 08:05:57;;;;;;;6.28;2.50;;;;;;;26.75;38.84;100725.59;5054748;28;20036;-63
2022/10/09 08:08:23;;;;;;;5.90;2.25;;;;;;;26.20;40.42;100711.38;5054415;28;20028;-65
2022/10/09 08:10:48;;;;;;;5.40;2.55;;;;;;;26.02;40.78;100724.72;5056281;28;20466;-65
2022/10/09 08:13:14;;;;;;;9.13;3.20;;;;;;;25.98;40.87;100715.91;5055071;28;20024;-65
2022/10/09 08:15:41;;;;;;;5.18;2.90;;;;;;;26.02;41.51;100723.84;5055419;28;20466;-65
2022/10/09 08:18:07;;;;;;;5.68;2.55;;;;;;;25.66;41.68;100723.22;5056325;28;20029;-65
2022/10/09 08:20:32;;;;;;;8.18;2.40;;;;;;;24.85;43.24;100719.09;5054598;28;20130;-63
2022/10/09 08:22:58;;;;;;;6.00;2.70;;;;;;;25.08;43.62;100719.94;5054362;28;20660;-64
2022/10/09 08:25:24;;;;;;;7.68;2.60;;;;;;;25.46;43.42;100715.84;5053908;28;20036;-64
2022/10/09 08:27:53;;;;;;;5.32;2.38;;;;;;;25.52;43.09;100709.88;5056888;28;20762;-65
2022/10/09 08:30:19;;;;;;;5.93;2.40;;;;;;;25.35;42.73;100718.59;5038741;28;20024;-64
2022/10/09 08:32:44;;;;;;;4.63;2.10;;;;;;;25.29;43.16;100716.31;5056466;28;20038;-64
2022/10/09 08:35:13;;;;;;;4.95;2.50;;;;;;;24.85;44.54;100715.47;5054879;28;20111;-63
2022/10/09 08:37:38;;;;;;;4.25;1.90;;;;;;;24.89;45.21;100712.41;5055259;28;20493;-65
2022/10/09 08:40:05;;;;;;;4.43;2.30;;;;;;;25.13;44.83;100704.97;5057261;28;20025;-63
2022/10/09 08:42:41;;;;;;;4.30;2.22;;;;;;;25.35;43.44;100715.88;5053724;28;20028;-63
2022/10/09 08:45:15;;;;;;;4.03;2.10;;;;;;;25.08;43.05;100704.47;5053543;28;20081;-64
2022/10/09 08:47:46;;;;;;;3.80;2.03;;;;;;;25.16;44.76;100703.84;5057025;28;20628;-63
2022/10/09 08:50:21;;;;;;;5.78;2.13;;;;;;;24.98;44.30;100689.88;5058239;28;20024;-63
2022/10/09 08:53:00;;;;;;;4.72;1.80;;;;;;;24.93;44.26;100693.94;5055298;28;20033;-63
2022/10/09 08:55:27;;;;;;;3.30;1.80;;;;;;;25.05;44.11;100692.97;5054652;28;20167;-63
2022/10/09 08:57:55;;;;;;;4.50;1.80;;;;;;;25.44;44.75;100693.31;5056489;28;20025;-63
2022/10/09 09:00:25;;;;;;;5.53;2.28;;;;;;;25.41;44.51;100695.41;5055951;28;20041;-63
2022/10/09 09:03:16;;;;;;;4.45;1.70;;;;;;;25.45;43.96;100678.69;5053800;28;20029;-64
2022/10/09 09:05:51;;;;;;;6.88;1.90;;;;;;;25.23;43.80;100686.88;5053485;28;20742;-63
2022/10/09 09:08:25;;;;;;;4.32;2.05;;;;;;;25.04;44.67;100683.06;5053740;28;20593;-63
2022/10/09 09:11:14;;;;;;;3.78;1.80;;;;;;;25.17;43.69;100681.06;5053559;28;20082;-63
2022/10/09 09:13:42;;;;;;;3.30;1.70;;;;;;;25.45;44.44;100683.28;5053181;28;20039;-63
2022/10/09 09:16:14;;;;;;;3.22;1.98;;;;;;;25.27;44.91;100677.44;5055074;28;20102;-63
2022/10/09 09:18:54;;;;;;;6.35;2.60;;;;;;;25.07;44.56;100669.22;5053295;28;20028;-63
2022/10/09 09:21:50;;;;;;;7.22;2.60;;;;;;;25.08;45.12;100665.47;5053769;28;20037;-62
2022/10/09 09:24:41;;;;;;;5.70;2.30;;;;;;;25.32;44.27;100666.19;5055151;28;20174;-62
2022/10/09 09:27:27;;;;;;;3.75;1.73;;;;;;;25.37;44.29;100656.66;5056001;28;20055;-62
2022/10/09 09:30:11;;;;;;;6.20;2.10;;;;;;;25.32;43.72;100658.88;5054523;28;20472;-62
2022/10/09 09:32:40;;;;;;;6.13;2.17;;;;;;;25.45;43.60;100642.41;5052415;28;20032;-62
2022/10/09 09:35:24;;;;;;;4.45;1.70;;;;;;;25.37;43.35;100653.94;5055853;28;20032;-62
2022/10/09 09:37:49;;;;;;;4.63;1.85;;;;;;;25.53;43.71;100648.97;5055972;28;20032;-63
2022/10/09 09:40:18;;;;;;;7.13;1.80;;;;;;;25.60;43.85;100641.97;5054335;28;20044;-63
2022/10/09 09:42:44;;;;;;;4.45;1.80;;;;;;;25.81;43.91;100637.41;5055310;28;20028;-62
2022/10/09 09:45:18;;;;;;;4.53;1.92;;;;;;;25.47;43.22;100635.00;5053591;28;20442;-62
2022/10/09 09:47:51;;;;;;;4.30;1.63;;;;;;;25.48;43.92;100632.13;5052204;28;20096;-62
2022/10/09 09:50:26;;;;;;;;;;;;;;;25.86;43.42;100629.69;5054813;28;20360;-62
2022/10/09 09:52:53;;;;;;;5.15;1.95;;;;;;;26.15;43.93;100626.34;5054878;28;20006;-62
2022/10/09 09:55:28;;;;;;;6.22;1.63;;;;;;;26.29;42.60;100626.91;5055998;28;20060;-62
2022/10/09 09:58:13;;;;;;;3.50;1.92;;;;;;;26.20;42.49;100619.50;5054006;28;20021;-62
2022/10/09 10:00:39;;;;;;;4.07;1.60;;;;;;;26.26;43.37;100615.38;5054357;28;20444;-62
2022/10/09 10:03:15;;;;;;;3.05;1.27;;;;;;;26.38;43.84;100612.44;5052622;28;20137;-62
2022/10/09 10:05:42;;;;;;;4.53;1.70;;;;;;;26.22;42.54;100608.47;5054366;28;20080;-62
2022/10/09 10:08:24;;;;;;;2.13;1.30;;;;;;;25.97;42.37;100606.97;5052683;28;20111;-62
2022/10/09 10:10:54;;;;;;;3.38;1.52;;;;;;;26.00;42.42;100589.50;5052005;28;20033;-63
2022/10/09 10:13:27;;;;;;;4.18;1.27;;;;;;;26.36;42.75;100586.31;5051638;28;20025;-63
2022/10/09 10:15:54;;;;;;;;;;;;;;;26.60;41.85;100595.00;5053401;28;20134;-63
2022/10/09 10:18:22;;;;;;;4.18;1.58;;;;;;;26.58;42.13;100592.44;5052447;28;19959;-63
2022/10/09 10:21:15;;;;;;;3.13;1.40;;;;;;;26.76;41.44;100589.94;5054781;28;20021;-62
2022/10/09 10:23:45;;;;;;;5.45;2.78;;;;;;;27.11;42.54;100580.28;5045138;28;20044;-63
2022/10/09 10:26:24;;;;;;;5.00;1.77;;;;;;;27.38;42.11;100576.84;5055017;28;20082;-63
2022/10/09 10:29:07;;;;;;;2.33;1.13;;;;;;;27.61;40.91;100572.00;5056186;28;20083;-63
2022/10/09 10:31:51;;;;;;;3.17;1.30;;;;;;;27.44;39.83;100565.38;5053244;28;20040;-64
2022/10/09 10:34:26;;;;;;;3.15;1.30;;;;;;;27.62;39.45;100566.38;5050735;28;20460;-63
2022/10/09 10:37:13;;;;;;;5.40;1.65;;;;;;;27.83;39.79;100561.59;5052174;28;20108;-63
2022/10/09 10:39:49;;;;;;;3.58;1.33;;;;;;;27.86;41.48;100554.94;5053627;28;20166;-64
2022/10/09 10:42:33;;;;;;;2.90;1.10;;;;;;;27.63;39.34;100548.09;5054367;28;20050;-63
2022/10/09 10:45:07;;;;;;;3.53;1.20;;;;;;;27.56;38.94;100547.78;5053782;28;20085;-64
2022/10/09 10:47:38;;;;;;;2.78;1.00;;;;;;;27.71;39.86;100546.34;5056404;28;20028;-64
2022/10/09 10:50:08;;;;;;;4.10;1.17;;;;;;;27.47;38.74;100548.69;5051184;28;20029;-64
2022/10/09 10:52:49;;;;;;;3.95;1.30;;;;;;;27.34;39.25;100545.38;5053767;28;20028;-64
2022/10/09 10:55:48;;;;;;;2.15;0.95;;;;;;;27.69;38.45;100534.72;5038768;28;20230;-64
2022/10/09 10:58:14;;;;;;;2.42;0.98;;;;;;;27.41;38.07;100541.06;5052954;28;20028;-64
2022/10/09 11:00:47;;;;;;;4.57;1.40;;;;;;;27.43;39.24;100541.75;5053353;28;20514;-65
2022/10/09 11:03:34;;;;;;;3.33;1.30;;;;;;;27.42;39.36;100531.84;5054167;28;20100;-64
2022/10/09 11:06:11;;;;;;;2.67;1.63;;;;;;;27.75;39.26;100534.13;5052252;28;20148;-64
2022/10/09 11:08:49;;;;;;;3.28;1.23;;;;;;;28.03;39.61;100525.03;5054092;28;20020;-64
2022/10/09 11:11:43;;;;;;;4.18;1.00;;;;;;;27.81;37.78;100530.78;5055041;28;20111;-64
2022/10/09 11:14:24;;;;;;;1.85;1.00;;;;;;;27.70;37.06;100533.69;5055828;28;20727;-64
2022/10/09 11:17:25;;;;;;;4.10;1.70;;;;;;;27.94;38.51;100525.91;5051213;28;20032;-65
2022/10/09 11:20:12;;;;;;;3.63;1.40;;;;;;;28.20;40.06;100521.50;5055167;28;20025;-64
2022/10/09 11:22:52;;;;;;;4.13;1.73;;;;;;;28.24;39.25;100511.97;5052604;28;20048;-64
2022/10/09 11:25:25;;;;;;;3.35;1.50;;;;;;;28.12;38.62;100502.22;5053257;28;20778;-64
2022/10/09 11:28:05;;;;;;;2.47;1.20;;;;;;;28.01;37.89;100504.28;5054347;28;20117;-64